createdAt,value
2023-03-29T00:00:49.558Z,5.96
2023-03-29T00:03:16.978Z,5.90
2023-03-29T00:05:44.692Z,5.99
2023-03-29T00:08:14.255Z,5.98
2023-03-29T00:10:41.217Z,5.88
2023-03-29T00:13:07.598Z,5.95
2023-03-29T00:15:34.071Z,5.98
2023-03-29T00:18:00.717Z,5.84
2023-03-29T00:20:28.627Z,5.88
2023-03-29T00:22:55.248Z,5.92
2023-03-29T00:25:21.668Z,5.90
2023-03-29T00:27:48.191Z,5.96
2023-03-29T00:30:15.262Z,5.89
2023-03-29T00:32:41.885Z,5.83
2023-03-29T00:35:09.057Z,5.85
2023-03-29T00:37:35.465Z,5.76
2023-03-29T00:40:01.976Z,5.90
2023-03-29T00:42:28.409Z,5.84
2023-03-29T00:45:05.285Z,5.89
2023-03-29T00:47:37.456Z,5.89
2023-03-29T00:50:06.081Z,5.84
2023-03-29T00:52:33.037Z,5.75
2023-03-29T00:55:03.358Z,5.62
2023-03-29T00:57:30.706Z,5.66
2023-03-29T00:59:58.415Z,5.72
2023-03-29T01:02:28.099Z,5.67
2023-03-29T01:05:06.439Z,5.67
2023-03-29T01:07:38.200Z,5.56
2023-03-29T01:10:31.665Z,5.64
2023-03-29T01:13:02.437Z,5.72
2023-03-29T01:15:29.279Z,5.80
2023-03-29T01:17:58.037Z,5.66
2023-03-29T01:20:43.430Z,5.69
2023-03-29T01:23:31.224Z,5.81
2023-03-29T01:26:16.880Z,5.79
2023-03-29T01:28:49.563Z,5.94
2023-03-29T01:31:28.772Z,6.02
2023-03-29T01:34:02.459Z,5.94
2023-03-29T01:36:39.186Z,5.99
2023-03-29T01:39:06.908Z,5.95
2023-03-29T01:42:13.840Z,6.03
2023-03-29T01:44:52.599Z,6.07
2023-03-29T01:47:20.061Z,6.03
2023-03-29T01:49:58.525Z,6.07
2023-03-29T01:52:30.914Z,6.04
2023-03-29T01:55:13.436Z,6.02
2023-03-29T01:57:42.398Z,5.99
2023-03-29T02:00:14.136Z,5.99
2023-03-29T02:02:42.435Z,5.92
2023-03-29T02:05:09.898Z,5.87
2023-03-29T02:07:38.135Z,5.82
2023-03-29T02:10:06.521Z,5.81
2023-03-29T02:12:33.414Z,5.77
2023-03-29T02:15:00.931Z,5.80
2023-03-29T02:17:27.928Z,5.80
2023-03-29T02:20:22.189Z,5.86
2023-03-29T02:23:13.617Z,5.80
2023-03-29T02:25:40.562Z,6.03
2023-03-29T02:28:07.483Z,6.06
2023-03-29T02:30:51.470Z,6.13
2023-03-29T02:33:22.060Z,6.05
2023-03-29T02:35:56.611Z,6.23
2023-03-29T02:38:26.355Z,6.32
2023-03-29T02:40:52.888Z,6.32
2023-03-29T02:43:19.885Z,6.23
2023-03-29T02:45:47.018Z,6.37
2023-03-29T02:48:16.227Z,6.36
2023-03-29T02:50:45.897Z,6.24
2023-03-29T02:53:23.030Z,6.36
2023-03-29T02:55:49.558Z,6.39
2023-03-29T02:58:15.976Z,6.55
2023-03-29T03:00:46.054Z,6.66
2023-03-29T03:03:13.311Z,6.62
2023-03-29T03:05:39.793Z,6.52
2023-03-29T03:08:07.350Z,6.65
2023-03-29T03:10:34.935Z,6.56
2023-03-29T03:13:01.364Z,6.73
2023-03-29T03:15:27.902Z,6.83
2023-03-29T03:17:54.755Z,6.76
2023-03-29T03:20:23.997Z,6.87
2023-03-29T03:22:50.436Z,6.91
2023-03-29T03:25:19.373Z,6.80
2023-03-29T03:27:47.365Z,6.74
2023-03-29T03:30:14.109Z,6.84
2023-03-29T03:32:41.287Z,6.82
2023-03-29T03:35:07.927Z,6.74
2023-03-29T03:37:34.434Z,6.80
2023-03-29T03:40:01.135Z,6.86
2023-03-29T03:42:29.895Z,6.87
2023-03-29T03:44:56.501Z,6.70
2023-03-29T03:47:23.594Z,6.71
2023-03-29T03:49:51.264Z,6.82
2023-03-29T03:52:18.528Z,6.80
2023-03-29T03:54:46.561Z,6.70
2023-03-29T03:57:13.159Z,6.70
2023-03-29T03:59:39.558Z,6.66
2023-03-29T04:02:06.638Z,6.68
2023-03-29T04:04:33.094Z,6.69
2023-03-29T04:07:02.719Z,6.61
2023-03-29T04:09:31.062Z,6.72
2023-03-29T04:11:58.251Z,6.70
2023-03-29T04:14:25.883Z,6.74
2023-03-29T04:16:53.066Z,6.82
2023-03-29T04:19:19.530Z,6.68
2023-03-29T04:21:47.472Z,6.68
2023-03-29T04:24:13.883Z,6.69
2023-03-29T04:26:40.323Z,6.74
2023-03-29T04:29:07.101Z,6.76
2023-03-29T04:31:33.808Z,6.82
2023-03-29T04:34:00.628Z,6.70
2023-03-29T04:36:27.062Z,6.78
2023-03-29T04:38:53.433Z,6.65
2023-03-29T04:41:20.204Z,6.63
2023-03-29T04:43:47.620Z,6.73
2023-03-29T04:46:14.684Z,6.72
2023-03-29T04:48:41.781Z,6.74
2023-03-29T04:51:08.149Z,6.64
2023-03-29T04:53:34.547Z,6.78
2023-03-29T04:56:01.205Z,6.84
2023-03-29T04:58:32.177Z,6.94
2023-03-29T05:00:59.140Z,6.72
2023-03-29T05:03:26.907Z,6.81
2023-03-29T05:05:53.367Z,6.67
2023-03-29T05:08:19.816Z,6.69
2023-03-29T05:10:47.421Z,6.65
2023-03-29T05:13:13.794Z,6.54
2023-03-29T05:15:41.302Z,6.60
2023-03-29T05:18:08.011Z,6.78
2023-03-29T05:20:34.488Z,6.74
2023-03-29T05:23:01.390Z,6.85
2023-03-29T05:25:28.119Z,6.65
2023-03-29T05:27:54.510Z,6.66
2023-03-29T05:30:20.942Z,6.78
2023-03-29T05:32:47.904Z,6.70
2023-03-29T05:35:14.349Z,6.69
2023-03-29T05:37:40.782Z,6.70
2023-03-29T05:40:10.028Z,6.83
2023-03-29T05:42:37.904Z,6.83
2023-03-29T05:45:05.182Z,6.85
2023-03-29T05:47:31.662Z,6.88
2023-03-29T05:49:58.100Z,6.86
2023-03-29T05:52:24.761Z,6.86
2023-03-29T05:54:51.526Z,6.92
2023-03-29T05:57:18.009Z,6.85
2023-03-29T05:59:44.723Z,6.76
2023-03-29T06:02:12.288Z,6.74
2023-03-29T06:04:39.946Z,6.83
2023-03-29T06:07:07.020Z,6.77
2023-03-29T06:09:33.559Z,6.80
2023-03-29T06:12:01.714Z,6.68
2023-03-29T06:14:28.862Z,6.71
2023-03-29T06:16:56.449Z,6.82
2023-03-29T06:19:23.026Z,6.70
2023-03-29T06:21:49.839Z,6.86
2023-03-29T06:24:16.241Z,7.02
2023-03-29T06:26:42.641Z,7.25
2023-03-29T06:29:09.129Z,7.15
2023-03-29T06:31:36.282Z,7.21
2023-03-29T06:34:04.741Z,7.26
2023-03-29T06:36:34.035Z,7.42
2023-03-29T06:39:00.816Z,7.40
2023-03-29T06:41:27.199Z,7.47
2023-03-29T06:43:54.654Z,7.70
2023-03-29T06:46:21.079Z,7.69
2023-03-29T06:48:48.166Z,7.89
2023-03-29T06:51:14.589Z,8.06
2023-03-29T06:53:40.970Z,8.08
2023-03-29T06:56:09.170Z,8.11
2023-03-29T06:58:35.924Z,7.96
2023-03-29T07:01:03.866Z,7.98
2023-03-29T07:03:30.750Z,8.11
2023-03-29T07:06:09.644Z,8.22
2023-03-29T07:08:43.218Z,8.38
2023-03-29T07:11:12.422Z,8.53
2023-03-29T07:13:43.170Z,8.56
2023-03-29T07:16:14.044Z,8.33
2023-03-29T07:18:42.687Z,8.52
2023-03-29T07:21:10.595Z,8.51
2023-03-29T07:23:37.486Z,8.52
2023-03-29T07:26:07.478Z,8.61
2023-03-29T07:28:34.580Z,8.70
2023-03-29T07:31:09.874Z,8.75
2023-03-29T07:33:37.257Z,8.69
2023-03-29T07:36:04.900Z,8.82
2023-03-29T07:38:32.398Z,8.89
2023-03-29T07:40:59.272Z,8.79
2023-03-29T07:43:25.767Z,8.94
2023-03-29T07:45:52.573Z,8.85
2023-03-29T07:48:19.406Z,8.82
2023-03-29T07:50:46.050Z,8.92
2023-03-29T07:53:13.034Z,8.80
2023-03-29T07:55:47.361Z,8.83
2023-03-29T07:58:14.622Z,8.69
2023-03-29T08:00:41.564Z,8.86
2023-03-29T08:03:10.763Z,9.00
2023-03-29T08:05:41.395Z,9.03
2023-03-29T08:08:09.405Z,9.11
2023-03-29T08:10:37.651Z,8.96
2023-03-29T08:13:09.018Z,9.05
2023-03-29T08:15:37.689Z,9.12
2023-03-29T08:18:04.395Z,9.20
2023-03-29T08:20:32.092Z,9.25
2023-03-29T08:22:58.481Z,9.64
2023-03-29T08:25:24.894Z,9.60
2023-03-29T08:27:51.414Z,9.56
2023-03-29T08:30:18.116Z,9.61
2023-03-29T08:32:46.958Z,9.61
2023-03-29T08:35:15.392Z,9.85
2023-03-29T08:37:42.180Z,9.80
2023-03-29T08:40:16.202Z,10.21
2023-03-29T08:42:55.353Z,10.22
2023-03-29T08:45:31.817Z,10.16
2023-03-29T08:48:19.055Z,10.27
2023-03-29T08:50:52.925Z,10.53
2023-03-29T08:53:36.328Z,10.28
2023-03-29T08:56:08.688Z,10.06
2023-03-29T08:58:36.980Z,10.35
2023-03-29T09:01:05.885Z,10.48
2023-03-29T09:03:37.363Z,10.63
2023-03-29T09:06:08.722Z,10.46
2023-03-29T09:08:38.367Z,10.50
2023-03-29T09:11:07.881Z,10.41
2023-03-29T09:13:38.990Z,10.34
2023-03-29T09:16:13.452Z,10.46
2023-03-29T09:18:55.699Z,10.44
2023-03-29T09:21:46.501Z,10.73
2023-03-29T09:24:38.698Z,10.55
2023-03-29T09:27:10.539Z,10.49
2023-03-29T09:29:46.432Z,10.44
2023-03-29T09:32:26.423Z,9.97
2023-03-29T09:35:27.841Z,9.94
2023-03-29T09:37:54.899Z,9.76
2023-03-29T09:40:39.379Z,9.93
2023-03-29T09:43:09.398Z,9.98
2023-03-29T09:45:38.341Z,9.85
2023-03-29T09:48:13.431Z,10.05
2023-03-29T09:50:47.668Z,10.42
2023-03-29T09:53:15.213Z,10.79
2023-03-29T09:55:43.290Z,11.16
2023-03-29T09:58:21.141Z,11.31
2023-03-29T10:00:48.992Z,11.34
2023-03-29T10:03:21.140Z,11.16
2023-03-29T10:05:47.884Z,11.01
2023-03-29T10:08:20.464Z,11.25
2023-03-29T10:10:47.029Z,11.29
2023-03-29T10:13:18.989Z,11.12
2023-03-29T10:15:57.531Z,11.50
2023-03-29T10:18:24.987Z,11.75
2023-03-29T10:20:51.359Z,11.66
2023-03-29T10:23:18.558Z,11.91
2023-03-29T10:25:45.415Z,12.33
2023-03-29T10:28:16.216Z,12.10
2023-03-29T10:30:42.814Z,12.17
2023-03-29T10:33:19.092Z,12.09
2023-03-29T10:35:46.893Z,11.90
2023-03-29T10:38:16.054Z,12.08
2023-03-29T10:40:47.487Z,12.31
2023-03-29T10:43:16.976Z,11.89
2023-03-29T10:45:43.945Z,11.95
2023-03-29T10:48:14.827Z,12.00
2023-03-29T10:50:42.694Z,11.97
2023-03-29T10:53:15.902Z,11.94
2023-03-29T10:55:49.621Z,11.82
2023-03-29T10:58:15.940Z,11.67
2023-03-29T11:00:52.356Z,11.74
2023-03-29T11:03:38.397Z,11.72
2023-03-29T11:06:14.555Z,11.84
2023-03-29T11:09:21.025Z,11.98
2023-03-29T11:12:04.444Z,11.88
2023-03-29T11:14:47.389Z,11.89
2023-03-29T11:17:42.242Z,11.89
2023-03-29T11:20:18.202Z,11.94
2023-03-29T11:23:29.812Z,11.85
2023-03-29T11:26:13.474Z,12.21
2023-03-29T11:29:00.085Z,12.29
2023-03-29T11:31:49.365Z,12.26
2023-03-29T11:34:22.645Z,12.39
2023-03-29T11:37:00.984Z,12.43
2023-03-29T11:40:11.058Z,12.76
2023-03-29T11:42:41.758Z,13.27
2023-03-29T11:45:14.506Z,13.66
2023-03-29T11:47:42.107Z,14.81
2023-03-29T11:50:22.253Z,15.16
2023-03-29T11:52:54.592Z,14.75
2023-03-29T11:55:27.477Z,14.64
2023-03-29T11:58:01.344Z,14.62
2023-03-29T12:00:32.734Z,14.58
2023-03-29T12:03:17.466Z,14.18
2023-03-29T12:05:57.378Z,14.09
2023-03-29T12:08:29.585Z,14.07
2023-03-29T12:11:14.380Z,13.81
2023-03-29T12:13:47.888Z,13.94
2023-03-29T12:16:42.250Z,14.38
2023-03-29T12:19:22.090Z,14.21
2023-03-29T12:21:49.015Z,14.17
2023-03-29T12:24:17.254Z,14.10
2023-03-29T12:26:46.877Z,14.70
2023-03-29T12:29:32.082Z,14.84
2023-03-29T12:32:16.763Z,15.76
2023-03-29T12:35:18.678Z,15.63
2023-03-29T12:37:52.187Z,15.90
2023-03-29T12:40:20.335Z,16.13
2023-03-29T12:42:48.305Z,15.71
2023-03-29T12:45:19.431Z,14.99
2023-03-29T12:47:47.169Z,14.82
2023-03-29T12:50:32.241Z,14.82
2023-03-29T12:53:04.145Z,15.59
2023-03-29T12:55:40.129Z,16.31
2023-03-29T12:58:20.783Z,15.73
2023-03-29T13:00:47.980Z,15.27
2023-03-29T13:03:39.281Z,15.37
2023-03-29T13:06:09.256Z,15.65
2023-03-29T13:08:44.160Z,15.47
2023-03-29T13:11:23.554Z,15.09
2023-03-29T13:13:50.699Z,14.71
2023-03-29T13:16:18.800Z,14.32
2023-03-29T13:18:54.334Z,14.32
2023-03-29T13:21:27.240Z,14.05
2023-03-29T13:23:58.927Z,13.99
2023-03-29T13:26:49.682Z,14.00
2023-03-29T13:29:23.896Z,13.81
2023-03-29T13:32:03.083Z,13.99
2023-03-29T13:34:38.134Z,13.87
2023-03-29T13:37:23.121Z,13.98
2023-03-29T13:39:52.837Z,14.10
2023-03-29T13:42:21.473Z,14.09
2023-03-29T13:44:49.181Z,14.30
2023-03-29T13:47:48.968Z,14.63
2023-03-29T13:50:39.617Z,15.22
2023-03-29T13:53:26.228Z,15.60
2023-03-29T13:55:53.081Z,15.98
2023-03-29T13:58:32.762Z,16.02
2023-03-29T14:01:02.684Z,15.66
2023-03-29T14:03:31.071Z,15.39
2023-03-29T14:05:59.764Z,15.21
2023-03-29T14:08:29.154Z,15.11
2023-03-29T14:10:55.798Z,15.10
2023-03-29T14:13:23.700Z,15.18
2023-03-29T14:16:02.802Z,15.04
2023-03-29T14:18:51.353Z,15.12
2023-03-29T14:21:18.417Z,15.16
2023-03-29T14:23:46.897Z,14.93
2023-03-29T14:26:21.882Z,14.81
2023-03-29T14:28:53.254Z,15.02
2023-03-29T14:31:25.501Z,15.43
2023-03-29T14:33:55.999Z,15.21
2023-03-29T14:36:23.139Z,15.53
2023-03-29T14:38:57.944Z,15.67
2023-03-29T14:41:29.585Z,15.93
2023-03-29T14:43:56.472Z,16.10
2023-03-29T14:46:23.193Z,16.10
2023-03-29T14:48:49.751Z,15.93
2023-03-29T14:51:16.234Z,15.77
2023-03-29T14:53:42.882Z,15.80
2023-03-29T14:56:15.889Z,15.82
2023-03-29T14:58:48.826Z,15.72
2023-03-29T15:01:23.496Z,15.66
2023-03-29T15:04:07.947Z,15.63
2023-03-29T15:06:41.826Z,15.60
2023-03-29T15:09:14.902Z,15.63
2023-03-29T15:11:41.563Z,15.77
2023-03-29T15:14:12.161Z,15.71
2023-03-29T15:16:43.468Z,15.74
2023-03-29T15:19:15.880Z,15.66
2023-03-29T15:21:43.106Z,15.63
2023-03-29T15:24:32.524Z,15.50
2023-03-29T15:27:23.581Z,15.53
2023-03-29T15:29:50.203Z,15.44
2023-03-29T15:32:24.793Z,15.82
2023-03-29T15:35:01.404Z,15.76
2023-03-29T15:37:28.146Z,15.70
2023-03-29T15:39:54.722Z,15.51
2023-03-29T15:42:21.493Z,15.79
2023-03-29T15:44:47.920Z,15.74
2023-03-29T15:47:14.409Z,15.62
2023-03-29T15:49:41.062Z,15.58
2023-03-29T15:52:07.446Z,15.52
2023-03-29T15:54:34.898Z,15.72
2023-03-29T15:57:06.299Z,15.54
2023-03-29T15:59:33.447Z,15.52
2023-03-29T16:02:00.369Z,15.68
2023-03-29T16:04:26.864Z,15.51
2023-03-29T16:06:55.202Z,15.51
2023-03-29T16:09:22.320Z,15.63
2023-03-29T16:11:49.651Z,15.46
2023-03-29T16:14:26.882Z,15.54
2023-03-29T16:16:55.378Z,15.55
2023-03-29T16:19:22.542Z,15.52
2023-03-29T16:21:49.135Z,15.55
2023-03-29T16:24:19.426Z,15.64
2023-03-29T16:26:46.276Z,15.53
2023-03-29T16:29:12.757Z,15.57
2023-03-29T16:31:39.391Z,15.62
2023-03-29T16:34:06.202Z,15.48
2023-03-29T16:36:33.754Z,15.54
2023-03-29T16:39:00.259Z,15.46
2023-03-29T16:41:26.962Z,15.44
2023-03-29T16:43:53.346Z,15.61
2023-03-29T16:46:19.817Z,15.66
2023-03-29T16:48:46.391Z,15.49
2023-03-29T16:51:12.815Z,15.49
2023-03-29T16:53:39.214Z,15.65
2023-03-29T16:56:07.753Z,15.66
2023-03-29T16:58:34.315Z,15.79
2023-03-29T17:01:11.592Z,15.66
2023-03-29T17:03:38.287Z,15.58
2023-03-29T17:06:05.641Z,15.48
2023-03-29T17:08:32.297Z,15.56
2023-03-29T17:10:59.033Z,15.40
2023-03-29T17:13:26.060Z,15.13
2023-03-29T17:15:54.124Z,14.98
2023-03-29T17:18:21.477Z,15.08
2023-03-29T17:20:50.587Z,14.96
2023-03-29T17:23:17.163Z,14.94
2023-03-29T17:25:43.576Z,14.96
2023-03-29T17:28:10.915Z,14.98
2023-03-29T17:30:37.796Z,15.00
2023-03-29T17:33:04.667Z,15.09
2023-03-29T17:35:31.272Z,15.25
2023-03-29T17:37:58.582Z,15.25
2023-03-29T17:40:25.113Z,15.12
2023-03-29T17:42:52.489Z,15.25
2023-03-29T17:45:19.291Z,15.16
2023-03-29T17:47:45.780Z,15.33
2023-03-29T17:50:12.888Z,15.15
2023-03-29T17:52:39.691Z,15.18
2023-03-29T17:55:16.148Z,15.36
2023-03-29T17:57:42.791Z,15.38
2023-03-29T18:00:13.701Z,15.39
2023-03-29T18:02:40.703Z,15.26
2023-03-29T18:05:09.312Z,15.31
2023-03-29T18:07:36.314Z,15.29
2023-03-29T18:10:02.769Z,15.19
2023-03-29T18:12:29.451Z,15.23
2023-03-29T18:14:59.295Z,15.22
2023-03-29T18:17:27.206Z,15.18
2023-03-29T18:19:53.675Z,15.17
2023-03-29T18:22:20.653Z,15.00
2023-03-29T18:24:48.079Z,15.20
2023-03-29T18:27:15.744Z,15.30
2023-03-29T18:29:43.844Z,15.28
2023-03-29T18:32:10.936Z,15.25
2023-03-29T18:34:38.968Z,15.26
2023-03-29T18:37:05.898Z,15.23
2023-03-29T18:39:34.488Z,15.03
2023-03-29T18:42:01.532Z,15.15
2023-03-29T18:44:28.210Z,15.13
2023-03-29T18:46:54.615Z,15.13
2023-03-29T18:49:21.317Z,15.05
2023-03-29T18:51:48.237Z,14.97
2023-03-29T18:54:14.598Z,15.04
2023-03-29T18:56:41.041Z,15.05
2023-03-29T18:59:07.429Z,15.01
2023-03-29T19:01:34.257Z,14.93
2023-03-29T19:04:01.028Z,14.83
2023-03-29T19:06:27.870Z,14.97
2023-03-29T19:08:55.423Z,15.00
2023-03-29T19:11:22.896Z,14.91
2023-03-29T19:13:50.608Z,14.91
2023-03-29T19:16:17.312Z,14.82
2023-03-29T19:18:43.850Z,14.82
2023-03-29T19:21:10.641Z,14.83
2023-03-29T19:23:37.264Z,14.84
2023-03-29T19:26:05.374Z,14.91
2023-03-29T19:28:33.224Z,14.78
2023-03-29T19:31:01.788Z,14.79
2023-03-29T19:33:29.294Z,14.83
2023-03-29T19:35:56.321Z,14.75
2023-03-29T19:38:22.809Z,14.81
2023-03-29T19:40:51.157Z,14.78
2023-03-29T19:43:18.258Z,14.75
2023-03-29T19:45:49.470Z,14.78
2023-03-29T19:48:22.551Z,14.76
2023-03-29T19:50:50.032Z,14.61
2023-03-29T19:53:16.490Z,14.67
2023-03-29T19:55:44.898Z,14.62
2023-03-29T19:58:11.372Z,14.65
2023-03-29T20:00:38.871Z,14.53
2023-03-29T20:03:09.091Z,14.70
2023-03-29T20:05:36.736Z,14.60
2023-03-29T20:08:03.312Z,14.67
2023-03-29T20:10:29.704Z,14.72
2023-03-29T20:12:56.902Z,14.58
2023-03-29T20:15:26.172Z,14.56
2023-03-29T20:17:55.322Z,14.56
2023-03-29T20:20:24.566Z,14.75
2023-03-29T20:23:04.349Z,14.60
2023-03-29T20:25:31.751Z,14.51
2023-03-29T20:27:59.484Z,14.49
2023-03-29T20:30:26.028Z,14.56
2023-03-29T20:32:52.534Z,14.49
2023-03-29T20:35:18.996Z,14.61
2023-03-29T20:37:45.692Z,14.52
2023-03-29T20:40:12.861Z,14.54
2023-03-29T20:42:39.327Z,14.60
2023-03-29T20:45:07.734Z,14.38
2023-03-29T20:47:42.054Z,14.58
2023-03-29T20:50:10.389Z,14.49
2023-03-29T20:52:36.751Z,14.46
2023-03-29T20:55:03.483Z,14.51
2023-03-29T20:57:30.546Z,14.43
2023-03-29T20:59:57.010Z,14.35
2023-03-29T21:02:23.620Z,14.46
2023-03-29T21:04:53.615Z,14.36
2023-03-29T21:07:21.439Z,14.19
2023-03-29T21:09:49.783Z,14.33
2023-03-29T21:12:16.699Z,14.41
2023-03-29T21:14:43.504Z,14.43
2023-03-29T21:17:10.293Z,14.34
2023-03-29T21:19:38.159Z,14.38
2023-03-29T21:22:05.109Z,14.33
2023-03-29T21:24:32.953Z,14.33
2023-03-29T21:27:00.465Z,14.24
2023-03-29T21:29:27.172Z,14.25
2023-03-29T21:31:53.807Z,14.26
2023-03-29T21:34:20.327Z,14.31
2023-03-29T21:36:46.763Z,14.29
2023-03-29T21:39:13.187Z,14.14
2023-03-29T21:41:39.630Z,14.20
2023-03-29T21:44:06.120Z,14.27
2023-03-29T21:46:32.496Z,14.17
2023-03-29T21:48:58.973Z,14.27
2023-03-29T21:51:25.492Z,14.30
2023-03-29T21:53:51.861Z,14.24
2023-03-29T21:56:18.239Z,14.34
2023-03-29T21:58:44.638Z,14.26
2023-03-29T22:01:11.223Z,14.22
2023-03-29T22:03:37.975Z,14.26
2023-03-29T22:06:08.494Z,14.26
2023-03-29T22:08:38.741Z,14.15
2023-03-29T22:11:08.637Z,14.13
2023-03-29T22:13:35.331Z,14.16
2023-03-29T22:16:03.732Z,14.21
2023-03-29T22:18:42.333Z,14.26
2023-03-29T22:21:15.003Z,14.29
2023-03-29T22:23:42.703Z,14.25
2023-03-29T22:26:11.001Z,14.14
2023-03-29T22:28:37.993Z,14.25
2023-03-29T22:31:06.389Z,14.14
2023-03-29T22:33:33.655Z,14.05
2023-03-29T22:36:00.604Z,14.00
2023-03-29T22:38:28.144Z,14.10
2023-03-29T22:40:55.269Z,14.16
2023-03-29T22:43:22.039Z,14.00
2023-03-29T22:45:49.102Z,14.18
2023-03-29T22:48:15.877Z,14.24
2023-03-29T22:50:42.875Z,14.31
2023-03-29T22:53:10.268Z,14.15
2023-03-29T22:55:37.033Z,14.11
2023-03-29T22:58:03.609Z,14.26
2023-03-29T23:00:30.811Z,14.27
2023-03-29T23:02:57.355Z,14.33
2023-03-29T23:05:23.789Z,14.29
2023-03-29T23:07:50.437Z,14.20
2023-03-29T23:10:16.961Z,14.26
2023-03-29T23:12:43.403Z,14.24
2023-03-29T23:15:11.165Z,14.19
2023-03-29T23:17:37.548Z,14.18
2023-03-29T23:20:05.975Z,14.27
2023-03-29T23:22:34.227Z,14.26
2023-03-29T23:25:00.604Z,14.19
2023-03-29T23:27:27.003Z,14.16
2023-03-29T23:29:53.378Z,14.12
2023-03-29T23:32:19.798Z,14.09
2023-03-29T23:34:46.163Z,14.19
2023-03-29T23:37:12.594Z,14.04
2023-03-29T23:39:39.383Z,13.99
2023-03-29T23:42:05.835Z,14.08
2023-03-29T23:44:32.513Z,14.01
2023-03-29T23:46:59.014Z,13.97
2023-03-29T23:49:25.435Z,13.92
2023-03-29T23:51:51.807Z,14.01
2023-03-29T23:54:18.199Z,14.02
2023-03-29T23:56:44.656Z,14.03
2023-03-29T23:59:11.042Z,14.08
